Wickenburg, Arizona
Current Conditions -  °F | °C
As of 8:58 PM on Friday 28 Nov 2014 (Local Time) from KLUF Reporting Station
Clear Clear  
Wind Chill: 56°   Ceiling: Unl
Heat Index: 56°   Visibility: 10mi
Dew Point: 31°   Wind: 5mph
Humidity: 39%   Direction: 10°N
Pressure: 29.9"   Gusts: NA
Location:  33.97°N, 112.75°W
Report Text: KLUF 290358Z AUTO 01004KT 10SM CLR 14/00 A2990 RMK AO2 SLP122 T01351004 $
Loading
Personal Weather Stations






























Interactive Weather Map New forecast layout! Learn more

10-Day Weather Forecast

Advertisements
Track Severe Weather on mobile